createdAt,value
2023-05-21T00:00:17.949Z,0.30
2023-05-21T00:02:45.990Z,0.30
2023-05-21T00:05:15.509Z,0.30
2023-05-21T00:07:45.795Z,0.40
2023-05-21T00:10:14.101Z,0.30
2023-05-21T00:12:42.641Z,0.30
2023-05-21T00:15:11.922Z,0.32
2023-05-21T00:17:40.202Z,0.40
2023-05-21T00:20:10.098Z,0.30
2023-05-21T00:22:38.177Z,0.30
2023-05-21T00:25:08.582Z,0.30
2023-05-21T00:27:36.628Z,0.30
2023-05-21T00:30:05.109Z,0.40
2023-05-21T00:32:33.155Z,0.30
2023-05-21T00:35:01.164Z,0.30
2023-05-21T00:37:29.755Z,0.35
2023-05-21T00:39:58.486Z,0.30
2023-05-21T00:42:30.629Z,0.40
2023-05-21T00:44:58.724Z,0.30
2023-05-21T00:47:29.563Z,0.30
2023-05-21T00:49:57.819Z,0.30
2023-05-21T00:52:26.926Z,0.32
2023-05-21T00:54:56.216Z,0.20
2023-05-21T00:57:28.217Z,0.30
2023-05-21T00:59:56.281Z,0.40
2023-05-21T01:02:26.118Z,0.30
2023-05-21T01:04:56.242Z,0.38
2023-05-21T01:07:24.374Z,0.30
2023-05-21T01:09:54.171Z,0.40
2023-05-21T01:14:53.646Z,0.40
2023-05-21T01:17:24.322Z,0.30
2023-05-21T01:19:54.719Z,0.45
2023-05-21T01:22:24.841Z,0.40
2023-05-21T01:24:56.408Z,0.30
2023-05-21T01:27:24.407Z,0.30
2023-05-21T01:29:52.378Z,0.30
2023-05-21T01:32:29.108Z,0.30
2023-05-21T01:35:05.578Z,0.50
2023-05-21T01:37:52.560Z,0.38
2023-05-21T01:40:30.824Z,0.40
2023-05-21T01:42:59.790Z,0.30
2023-05-21T01:45:33.111Z,0.30
2023-05-21T01:48:01.667Z,0.30
2023-05-21T01:50:31.847Z,0.20
2023-05-21T01:53:00.973Z,0.30
2023-05-21T01:55:31.287Z,0.40
2023-05-21T01:58:02.456Z,0.32
2023-05-21T02:00:32.565Z,0.30
2023-05-21T02:05:28.479Z,0.30
2023-05-21T02:07:57.100Z,0.20
2023-05-21T02:10:25.101Z,0.40
2023-05-21T02:12:54.472Z,0.40
2023-05-21T02:15:22.575Z,0.35
2023-05-21T02:17:51.277Z,0.30
2023-05-21T02:20:19.408Z,0.40
2023-05-21T02:22:49.311Z,0.40
2023-05-21T02:25:19.713Z,0.40
2023-05-21T02:27:47.736Z,0.32
2023-05-21T02:30:17.194Z,0.30
2023-05-21T02:32:45.407Z,0.30
2023-05-21T02:35:14.417Z,0.30
2023-05-21T02:37:44.103Z,0.30
2023-05-21T02:40:13.729Z,0.40
2023-05-21T02:42:42.442Z,0.32
2023-05-21T02:45:12.871Z,0.30
2023-05-21T02:47:42.364Z,0.38
2023-05-21T02:50:11.156Z,0.40
2023-05-21T02:52:39.176Z,0.30
2023-05-21T02:55:08.799Z,0.30
2023-05-21T02:57:36.765Z,0.30
2023-05-21T03:00:06.245Z,0.28
2023-05-21T03:02:34.376Z,0.30
2023-05-21T03:05:03.867Z,0.45
2023-05-21T03:07:32.369Z,0.30
2023-05-21T03:10:00.419Z,0.30
2023-05-21T03:12:28.878Z,0.30
2023-05-21T03:14:56.938Z,0.20
2023-05-21T03:17:24.890Z,0.30
2023-05-21T03:19:54.518Z,0.30
2023-05-21T03:22:23.935Z,0.30
2023-05-21T03:24:53.326Z,0.30
2023-05-21T03:27:21.402Z,0.30
2023-05-21T03:29:50.098Z,0.30
2023-05-21T03:32:18.323Z,0.30
2023-05-21T03:34:46.408Z,0.28
2023-05-21T03:37:14.375Z,0.30
2023-05-21T03:39:43.737Z,0.20
2023-05-21T03:42:13.977Z,0.30
2023-05-21T03:44:41.957Z,0.30
2023-05-21T03:47:09.985Z,0.20
2023-05-21T03:49:38.050Z,0.40
2023-05-21T03:52:06.697Z,0.30
2023-05-21T03:54:34.766Z,0.30
2023-05-21T03:57:04.229Z,0.30
2023-05-21T03:59:32.203Z,0.50
2023-05-21T04:02:00.285Z,0.30
2023-05-21T04:04:29.727Z,0.30
2023-05-21T04:06:57.730Z,0.30
2023-05-21T04:09:25.799Z,0.30
2023-05-21T04:11:53.837Z,0.30
2023-05-21T04:14:23.651Z,0.30
2023-05-21T04:19:19.502Z,0.20
2023-05-21T04:21:47.542Z,0.32
2023-05-21T04:24:15.584Z,0.30
2023-05-21T04:26:44.538Z,0.28
2023-05-21T04:29:12.568Z,0.25
2023-05-21T04:31:42.159Z,0.40
2023-05-21T04:34:10.419Z,0.30
2023-05-21T04:36:38.761Z,0.22
2023-05-21T04:39:07.269Z,0.30
2023-05-21T04:41:36.712Z,0.20
2023-05-21T04:44:04.892Z,0.28
2023-05-21T04:46:32.952Z,0.30
2023-05-21T04:49:03.785Z,0.30
2023-05-21T04:51:32.219Z,0.30
2023-05-21T04:54:00.598Z,0.20
2023-05-21T04:56:29.518Z,0.20
2023-05-21T04:58:58.746Z,0.30
2023-05-21T05:01:29.508Z,0.20
2023-05-21T05:03:57.590Z,0.20
2023-05-21T05:06:27.104Z,0.20
2023-05-21T05:08:55.106Z,0.28
2023-05-21T05:11:23.453Z,0.28
2023-05-21T05:13:51.549Z,0.20
2023-05-21T05:16:25.310Z,0.30
2023-05-21T05:18:53.930Z,0.20
2023-05-21T05:21:24.590Z,0.20
2023-05-21T05:23:54.024Z,0.17
2023-05-21T05:26:22.635Z,0.20
2023-05-21T05:28:50.741Z,0.30
2023-05-21T05:31:18.930Z,0.30
2023-05-21T05:33:48.405Z,0.20
2023-05-21T05:36:16.706Z,0.20
2023-05-21T05:38:44.700Z,0.20
2023-05-21T05:41:14.182Z,0.20
2023-05-21T05:43:42.266Z,0.20
2023-05-21T05:46:10.673Z,0.20
2023-05-21T05:48:38.718Z,0.30
2023-05-21T05:51:06.834Z,0.30
2023-05-21T05:53:34.832Z,0.20
2023-05-21T05:56:02.851Z,0.20
2023-05-21T05:58:32.544Z,0.20
2023-05-21T06:03:29.552Z,0.20
2023-05-21T06:05:59.475Z,0.30
2023-05-21T06:10:55.482Z,0.20
2023-05-21T06:13:23.420Z,0.20
2023-05-21T06:15:54.465Z,0.20
2023-05-21T06:18:22.516Z,0.20
2023-05-21T06:20:50.488Z,0.20
2023-05-21T06:23:18.694Z,0.20
2023-05-21T06:25:46.632Z,0.20
2023-05-21T06:28:14.675Z,0.20
2023-05-21T06:30:42.656Z,0.28
2023-05-21T06:33:14.988Z,0.17
2023-05-21T06:35:43.055Z,0.20
2023-05-21T06:38:11.013Z,0.30
2023-05-21T06:40:39.009Z,0.20
2023-05-21T06:43:06.975Z,0.20
2023-05-21T06:45:35.138Z,0.15
2023-05-21T06:48:03.420Z,0.20
2023-05-21T06:50:32.800Z,0.20
2023-05-21T06:53:00.782Z,0.20
2023-05-21T06:55:28.705Z,0.20
2023-05-21T06:57:58.762Z,0.20
2023-05-21T07:00:26.892Z,0.20
2023-05-21T07:02:54.954Z,0.20
2023-05-21T07:05:22.987Z,0.20
2023-05-21T07:07:52.343Z,0.20
2023-05-21T07:10:21.565Z,0.30
2023-05-21T07:12:49.531Z,0.20
2023-05-21T07:15:18.609Z,0.20
2023-05-21T07:17:46.562Z,0.17
2023-05-21T07:20:15.101Z,0.10
2023-05-21T07:22:45.010Z,0.10
2023-05-21T07:25:14.401Z,0.20
2023-05-21T07:27:43.460Z,0.15
2023-05-21T07:30:12.600Z,0.20
2023-05-21T07:32:41.118Z,0.20
2023-05-21T07:35:09.969Z,0.15
2023-05-21T07:37:37.997Z,0.13
2023-05-21T07:40:08.140Z,0.20
2023-05-21T07:42:37.607Z,0.20
2023-05-21T07:45:07.269Z,0.20
2023-05-21T07:50:03.219Z,0.20
2023-05-21T07:52:31.193Z,0.20
2023-05-21T07:54:59.347Z,0.20
2023-05-21T07:57:27.844Z,0.15
2023-05-21T07:59:57.561Z,0.10
2023-05-21T08:04:55.090Z,0.30
2023-05-21T08:07:23.412Z,0.15
2023-05-21T08:09:51.584Z,0.20
2023-05-21T08:12:19.735Z,0.10
2023-05-21T08:14:47.790Z,0.10
2023-05-21T08:17:17.735Z,0.20
2023-05-21T08:19:45.711Z,0.20
2023-05-21T08:22:13.864Z,0.10
2023-05-21T08:24:41.895Z,0.10
2023-05-21T08:27:10.179Z,0.10
2023-05-21T08:29:38.252Z,0.15
2023-05-21T08:32:07.502Z,0.13
2023-05-21T08:34:37.020Z,0.10
2023-05-21T08:37:05.598Z,0.13
2023-05-21T08:39:33.615Z,0.15
2023-05-21T08:42:14.310Z,0.10
2023-05-21T08:44:53.660Z,0.20
2023-05-21T08:47:27.914Z,0.20
2023-05-21T08:49:58.905Z,0.10
2023-05-21T08:52:27.452Z,0.10
2023-05-21T08:54:57.924Z,0.10
2023-05-21T08:57:28.402Z,0.10
2023-05-21T08:59:56.465Z,0.10
2023-05-21T09:02:25.118Z,0.10
2023-05-21T09:04:58.753Z,0.10
2023-05-21T09:07:29.732Z,0.10
2023-05-21T09:10:03.783Z,0.10
2023-05-21T09:12:32.996Z,0.20
2023-05-21T09:15:02.293Z,0.10
2023-05-21T09:17:30.538Z,0.10
2023-05-21T09:20:16.253Z,0.10
2023-05-21T09:22:46.512Z,0.10
2023-05-21T09:25:17.089Z,0.10
2023-05-21T09:27:45.944Z,0.20
2023-05-21T09:30:18.143Z,0.10
2023-05-21T09:32:47.218Z,0.10
2023-05-21T09:35:17.030Z,0.20
2023-05-21T09:37:48.396Z,0.15
2023-05-21T09:40:18.437Z,0.10
2023-05-21T09:42:48.533Z,0.10
2023-05-21T09:45:20.419Z,0.10
2023-05-21T09:47:50.715Z,0.10
2023-05-21T09:50:22.849Z,0.10
2023-05-21T09:52:53.057Z,0.10
2023-05-21T09:55:26.533Z,0.10
2023-05-21T09:57:54.983Z,0.10
2023-05-21T10:00:28.489Z,0.10
2023-05-21T10:02:58.790Z,0.10
2023-05-21T10:05:30.286Z,0.10
2023-05-21T10:08:02.266Z,0.10
2023-05-21T10:10:32.181Z,0.20
2023-05-21T10:13:06.716Z,0.20
2023-05-21T10:15:48.819Z,0.20
2023-05-21T10:18:21.405Z,0.10
2023-05-21T10:20:51.292Z,0.10
2023-05-21T10:23:21.170Z,0.10
2023-05-21T10:25:50.701Z,0.10
2023-05-21T10:28:19.030Z,0.10
2023-05-21T10:30:47.860Z,0.10
2023-05-21T10:33:17.535Z,0.10
2023-05-21T10:38:21.936Z,0.10
2023-05-21T10:40:51.465Z,0.10
2023-05-21T10:43:46.452Z,0.20
2023-05-21T10:46:55.399Z,0.10
2023-05-21T10:49:45.470Z,0.10
2023-05-21T10:52:33.491Z,0.10
2023-05-21T10:55:21.158Z,0.10
2023-05-21T10:58:22.132Z,0.10
2023-05-21T11:00:51.335Z,0.10
2023-05-21T11:03:20.911Z,0.10
2023-05-21T11:08:27.628Z,0.10
2023-05-21T11:10:59.073Z,0.20
2023-05-21T11:13:28.520Z,0.17
2023-05-21T11:16:15.741Z,0.10
2023-05-21T11:19:03.387Z,0.10
2023-05-21T11:21:34.863Z,0.10
2023-05-21T11:24:10.899Z,0.10
2023-05-21T11:27:04.922Z,0.20
2023-05-21T11:29:47.150Z,0.10
2023-05-21T11:32:17.511Z,0.10
2023-05-21T11:34:49.684Z,0.10
2023-05-21T11:37:33.494Z,0.10
2023-05-21T11:40:26.130Z,0.10
2023-05-21T11:42:57.395Z,0.10
2023-05-21T11:45:31.863Z,0.10
2023-05-21T11:48:01.729Z,0.10
2023-05-21T11:50:33.672Z,0.10
2023-05-21T11:53:01.948Z,0.10
2023-05-21T11:55:30.034Z,0.13
2023-05-21T11:58:00.850Z,0.10
2023-05-21T12:00:28.895Z,0.10
2023-05-21T12:02:58.868Z,0.10
2023-05-21T12:05:27.485Z,0.10
2023-05-21T12:07:56.427Z,0.10
2023-05-21T12:10:24.694Z,0.20
2023-05-21T12:12:57.029Z,0.20
2023-05-21T12:15:28.437Z,0.10
2023-05-21T12:17:58.039Z,0.10
2023-05-21T12:22:57.774Z,0.10
2023-05-21T12:27:58.494Z,0.10
2023-05-21T12:30:29.605Z,0.10
2023-05-21T12:33:02.084Z,0.10
2023-05-21T12:35:32.117Z,0.10
2023-05-21T12:38:03.945Z,0.10
2023-05-21T12:40:41.434Z,0.10
2023-05-21T12:43:09.715Z,0.10
2023-05-21T12:45:40.546Z,0.10
2023-05-21T12:48:09.139Z,0.10
2023-05-21T12:50:41.820Z,0.10
2023-05-21T12:53:12.537Z,0.20
2023-05-21T12:55:41.185Z,0.10
2023-05-21T12:58:09.579Z,0.10
2023-05-21T13:00:39.386Z,0.10
2023-05-21T13:03:07.609Z,0.10
2023-05-21T13:05:36.330Z,0.10
2023-05-21T13:08:04.537Z,0.10
2023-05-21T13:10:32.498Z,0.10
2023-05-21T13:13:00.582Z,0.10
2023-05-21T13:15:29.166Z,0.10
2023-05-21T13:18:01.222Z,0.10
2023-05-21T13:20:32.048Z,0.10
2023-05-21T13:23:05.653Z,0.10
2023-05-21T13:25:34.834Z,0.10
2023-05-21T13:28:05.919Z,0.10
2023-05-21T13:30:34.300Z,0.10
2023-05-21T13:33:04.001Z,0.10
2023-05-21T13:35:32.276Z,0.10
2023-05-21T13:38:03.191Z,0.10
2023-05-21T13:40:33.226Z,0.10
2023-05-21T13:43:01.346Z,0.10
2023-05-21T13:45:29.984Z,0.10
2023-05-21T13:47:58.036Z,0.10
2023-05-21T13:50:27.674Z,0.20
2023-05-21T13:55:23.884Z,0.10
2023-05-21T13:57:54.291Z,0.10
2023-05-21T14:00:23.537Z,0.10
2023-05-21T14:02:51.633Z,0.10
2023-05-21T14:05:20.038Z,0.10
2023-05-21T14:07:49.614Z,0.10
2023-05-21T14:12:47.090Z,0.10
2023-05-21T14:17:42.963Z,0.17
2023-05-21T14:20:12.312Z,0.10
2023-05-21T14:22:40.556Z,0.10
2023-05-21T14:25:11.080Z,0.10
2023-05-21T14:27:39.161Z,0.10
2023-05-21T14:30:08.900Z,0.10
2023-05-21T14:32:37.177Z,0.10
2023-05-21T14:35:06.714Z,0.10
2023-05-21T14:40:05.483Z,0.00
2023-05-21T14:42:35.047Z,0.13
2023-05-21T14:45:17.633Z,0.10
2023-05-21T14:47:48.382Z,0.10
2023-05-21T14:50:20.192Z,0.10
2023-05-21T14:52:48.188Z,0.10
2023-05-21T14:55:18.358Z,0.10
2023-05-21T14:57:47.816Z,0.10
2023-05-21T15:00:16.490Z,0.10
2023-05-21T15:02:44.753Z,0.10
2023-05-21T15:05:12.911Z,0.10
2023-05-21T15:07:40.932Z,0.10
2023-05-21T15:10:10.813Z,0.10
2023-05-21T15:12:38.829Z,0.10
2023-05-21T15:15:09.820Z,0.17
2023-05-21T15:17:38.022Z,0.10
2023-05-21T15:20:07.808Z,0.10
2023-05-21T15:22:36.154Z,0.10
2023-05-21T15:25:05.746Z,0.20
2023-05-21T15:30:02.837Z,0.10
2023-05-21T15:32:32.314Z,0.10
2023-05-21T15:35:00.657Z,0.10
2023-05-21T15:37:32.230Z,0.10
2023-05-21T15:40:00.748Z,0.10
2023-05-21T15:42:31.775Z,0.10
2023-05-21T15:45:00.166Z,0.13
2023-05-21T15:47:28.191Z,0.10
2023-05-21T15:49:58.705Z,0.10
2023-05-21T15:52:26.909Z,0.10
2023-05-21T15:54:54.906Z,0.10
2023-05-21T15:57:22.930Z,0.10
2023-05-21T15:59:52.444Z,0.10
2023-05-21T16:02:20.502Z,0.10
2023-05-21T16:04:50.012Z,0.10
2023-05-21T16:07:19.886Z,0.10
2023-05-21T16:09:47.819Z,0.10
2023-05-21T16:12:15.915Z,0.10
2023-05-21T16:14:43.960Z,0.00
2023-05-21T16:17:12.099Z,0.10
2023-05-21T16:19:40.276Z,0.10
2023-05-21T16:22:10.670Z,0.10
2023-05-21T16:24:40.326Z,0.10
2023-05-21T16:27:08.357Z,0.10
2023-05-21T16:29:38.083Z,0.10
2023-05-21T16:32:08.021Z,0.10
2023-05-21T16:34:36.311Z,0.20
2023-05-21T16:37:04.481Z,0.10
2023-05-21T16:39:32.524Z,0.10
2023-05-21T16:42:02.738Z,0.20
2023-05-21T16:44:31.907Z,0.20
2023-05-21T16:47:01.963Z,0.10
2023-05-21T16:49:30.032Z,0.10
2023-05-21T16:51:58.021Z,0.10
2023-05-21T16:54:26.143Z,0.10
2023-05-21T16:56:54.566Z,0.10
2023-05-21T16:59:25.019Z,0.10
2023-05-21T17:01:53.182Z,0.10
2023-05-21T17:04:21.216Z,0.13
2023-05-21T17:06:49.263Z,0.10
2023-05-21T17:09:18.798Z,0.10
2023-05-21T17:14:23.225Z,0.10
2023-05-21T17:17:02.282Z,0.10
2023-05-21T17:19:32.283Z,0.10
2023-05-21T17:22:00.363Z,0.20
2023-05-21T17:24:28.377Z,0.10
2023-05-21T17:26:58.055Z,0.10
2023-05-21T17:31:55.776Z,0.10
2023-05-21T17:34:29.568Z,0.10
2023-05-21T17:36:59.703Z,0.10
2023-05-21T17:39:30.552Z,0.10
2023-05-21T17:41:58.634Z,0.10
2023-05-21T17:44:26.651Z,0.10
2023-05-21T17:46:54.803Z,0.20
2023-05-21T17:49:26.428Z,0.15
2023-05-21T17:51:54.717Z,0.10
2023-05-21T17:54:22.719Z,0.10
2023-05-21T17:56:50.725Z,0.10
2023-05-21T17:59:18.726Z,0.20
2023-05-21T18:01:47.348Z,0.10
2023-05-21T18:04:15.407Z,0.20
2023-05-21T18:06:44.993Z,0.10
2023-05-21T18:09:14.307Z,0.20
2023-05-21T18:11:44.970Z,0.20
2023-05-21T18:14:12.977Z,0.10
2023-05-21T18:16:41.437Z,0.20
2023-05-21T18:19:09.484Z,0.17
2023-05-21T18:21:38.778Z,0.20
2023-05-21T18:24:09.231Z,0.10
2023-05-21T18:26:37.366Z,0.10
2023-05-21T18:29:05.349Z,0.10
2023-05-21T18:31:33.377Z,0.10
2023-05-21T18:34:01.346Z,0.17
2023-05-21T18:36:29.563Z,0.20
2023-05-21T18:38:57.588Z,0.20
2023-05-21T18:41:27.016Z,0.28
2023-05-21T18:43:54.897Z,0.17
2023-05-21T18:46:22.934Z,0.20
2023-05-21T18:48:50.880Z,0.20
2023-05-21T18:51:19.018Z,0.20
2023-05-21T18:53:47.035Z,0.20
2023-05-21T18:56:14.982Z,0.20
2023-05-21T18:58:44.388Z,0.25
2023-05-21T19:01:12.549Z,0.30
2023-05-21T19:03:40.563Z,0.30
2023-05-21T19:06:09.955Z,0.20
2023-05-21T19:08:37.906Z,0.20
2023-05-21T19:11:07.417Z,0.10
2023-05-21T19:13:35.633Z,0.20
2023-05-21T19:16:10.720Z,0.30
2023-05-21T19:18:42.048Z,0.20
2023-05-21T19:21:11.588Z,0.20
2023-05-21T19:23:51.707Z,0.20
2023-05-21T19:26:21.210Z,0.30
2023-05-21T19:28:52.847Z,0.20
2023-05-21T19:31:23.356Z,0.20
2023-05-21T19:33:51.778Z,0.20
2023-05-21T19:36:19.835Z,0.20
2023-05-21T19:38:49.137Z,0.10
2023-05-21T19:41:17.830Z,0.30
2023-05-21T19:43:46.857Z,0.30
2023-05-21T19:46:18.077Z,0.17
2023-05-21T19:48:49.602Z,0.20
2023-05-21T19:51:17.976Z,0.30
2023-05-21T19:53:45.939Z,0.22
2023-05-21T19:56:13.908Z,0.20
2023-05-21T19:58:46.789Z,0.28
2023-05-21T20:01:15.319Z,0.20
2023-05-21T20:03:45.472Z,0.30
2023-05-21T20:06:18.734Z,0.28
2023-05-21T20:08:46.766Z,0.10
2023-05-21T20:11:14.793Z,0.20
2023-05-21T20:13:42.865Z,0.20
2023-05-21T20:16:12.545Z,0.10
2023-05-21T20:21:09.566Z,0.15
2023-05-21T20:23:38.906Z,0.17
2023-05-21T20:26:06.920Z,0.20
2023-05-21T20:28:36.010Z,0.20
2023-05-21T20:31:04.504Z,0.20
2023-05-21T20:33:34.315Z,0.20
2023-05-21T20:38:33.172Z,0.22
2023-05-21T20:41:02.562Z,0.20
2023-05-21T20:43:30.676Z,0.20
2023-05-21T20:46:00.374Z,0.20
2023-05-21T20:50:57.392Z,0.30
2023-05-21T20:53:25.989Z,0.10
2023-05-21T20:55:54.568Z,0.20
2023-05-21T20:58:25.403Z,0.20
2023-05-21T21:00:55.168Z,0.20
2023-05-21T21:05:52.801Z,0.20
2023-05-21T21:08:20.761Z,0.22
2023-05-21T21:10:48.753Z,0.20
2023-05-21T21:13:16.731Z,0.30
2023-05-21T21:15:46.162Z,0.30
2023-05-21T21:18:14.189Z,0.28
2023-05-21T21:20:42.606Z,0.20
2023-05-21T21:23:10.544Z,0.25
2023-05-21T21:25:38.524Z,0.20
2023-05-21T21:28:06.444Z,0.20
2023-05-21T21:30:34.441Z,0.20
2023-05-21T21:33:03.981Z,0.22
2023-05-21T21:35:32.124Z,0.20
2023-05-21T21:38:00.124Z,0.30
2023-05-21T21:40:28.316Z,0.28
2023-05-21T21:42:56.224Z,0.30
2023-05-21T21:45:24.067Z,0.20
2023-05-21T21:47:52.021Z,0.20
2023-05-21T21:50:21.414Z,0.20
2023-05-21T21:52:49.840Z,0.22
2023-05-21T21:55:18.931Z,0.20
2023-05-21T21:57:46.858Z,0.20
2023-05-21T22:00:18.029Z,0.20
2023-05-21T22:02:47.416Z,0.45
2023-05-21T22:05:15.642Z,0.20
2023-05-21T22:07:46.948Z,0.20
2023-05-21T22:10:16.084Z,0.22
2023-05-21T22:12:45.914Z,0.20
2023-05-21T22:15:22.890Z,0.20
2023-05-21T22:17:51.813Z,0.20
2023-05-21T22:20:20.116Z,0.30
2023-05-21T22:22:49.544Z,0.20
2023-05-21T22:25:17.618Z,0.20
2023-05-21T22:27:45.638Z,0.30
2023-05-21T22:30:14.234Z,0.20
2023-05-21T22:32:42.317Z,0.20
2023-05-21T22:35:12.471Z,0.30
2023-05-21T22:37:40.903Z,0.15
2023-05-21T22:40:11.476Z,0.22
2023-05-21T22:42:40.450Z,0.20
2023-05-21T22:45:11.009Z,0.28
2023-05-21T22:47:39.464Z,0.20
2023-05-21T22:50:10.024Z,0.20
2023-05-21T22:52:38.325Z,0.30
2023-05-21T22:55:07.876Z,0.20
2023-05-21T22:57:37.175Z,0.30
2023-05-21T23:00:07.445Z,0.30
2023-05-21T23:02:35.612Z,0.20
2023-05-21T23:05:03.748Z,0.20
2023-05-21T23:07:32.159Z,0.20
2023-05-21T23:10:00.147Z,0.17
2023-05-21T23:12:28.090Z,0.20
2023-05-21T23:14:57.410Z,0.25
2023-05-21T23:17:25.367Z,0.20
2023-05-21T23:19:53.411Z,0.25
2023-05-21T23:22:21.720Z,0.17
2023-05-21T23:24:50.976Z,0.20
2023-05-21T23:27:19.431Z,0.30
2023-05-21T23:29:47.332Z,0.30
2023-05-21T23:32:16.735Z,0.20
2023-05-21T23:34:44.779Z,0.28
2023-05-21T23:37:13.111Z,0.35
2023-05-21T23:39:41.047Z,0.20
2023-05-21T23:42:09.215Z,0.20
2023-05-21T23:44:37.565Z,0.20
2023-05-21T23:47:06.484Z,0.20
2023-05-21T23:49:35.786Z,0.27
2023-05-21T23:52:04.090Z,0.20
2023-05-21T23:54:32.435Z,0.20
2023-05-21T23:57:00.328Z,0.20
2023-05-21T23:59:28.280Z,0.20
